createdAt,value
2022-11-26T00:07:51.510Z,1020.9
2022-11-26T00:21:51.608Z,1020.9
2022-11-26T00:35:52.043Z,1020.92
2022-11-26T00:49:51.957Z,1020.82
2022-11-26T01:03:51.986Z,1021.03
2022-11-26T01:17:51.986Z,1020.96
2022-11-26T01:31:52.026Z,1021.07
2022-11-26T01:45:52.066Z,1021.28
2022-11-26T01:59:52.371Z,1021.45
2022-11-26T02:13:52.769Z,1021.59
2022-11-26T02:27:52.735Z,1021.72
2022-11-26T02:41:52.694Z,1021.91
2022-11-26T02:55:52.802Z,1021.93
2022-11-26T03:09:52.819Z,1021.98
2022-11-26T03:23:52.811Z,1021.95
2022-11-26T03:37:52.897Z,1021.93
2022-11-26T03:51:53.014Z,1021.97
2022-11-26T04:05:52.959Z,1022.18
2022-11-26T04:19:52.985Z,1022.23
2022-11-26T04:33:53.154Z,1022.26
2022-11-26T04:47:53.029Z,1022.29
2022-11-26T05:01:53.074Z,1022.44
2022-11-26T05:15:53.090Z,1022.63
2022-11-26T05:29:53.302Z,1022.79
2022-11-26T05:43:53.854Z,1022.78
2022-11-26T05:57:54.146Z,1022.99
2022-11-26T06:11:54.166Z,1023.18
2022-11-26T06:26:54.192Z,1023.39
2022-11-26T06:41:54.192Z,1023.6
2022-11-26T06:56:54.380Z,1023.96
2022-11-26T07:11:54.398Z,1024.2
2022-11-26T07:26:54.399Z,1024.15
2022-11-26T07:41:54.592Z,1024.13
2022-11-26T07:56:54.683Z,1024.3899999999999
2022-11-26T08:11:54.763Z,1024.54
2022-11-26T08:26:54.830Z,1024.92
2022-11-26T08:41:54.808Z,1025.02
2022-11-26T08:56:54.846Z,1025.49
2022-11-26T09:11:54.825Z,1025.6599999999999
2022-11-26T09:26:54.864Z,1025.94
2022-11-26T09:41:54.839Z,1025.75
2022-11-26T09:56:54.829Z,1025.6399999999999
2022-11-26T10:11:54.871Z,1025.79
2022-11-26T10:26:54.869Z,1025.79
2022-11-26T10:41:54.909Z,1025.96
2022-11-26T10:56:54.894Z,1025.94
2022-11-26T11:11:54.942Z,1025.94
2022-11-26T11:26:54.932Z,1025.87
2022-11-26T11:41:54.988Z,1025.8
2022-11-26T11:56:55.027Z,1025.8
2022-11-26T12:11:55.033Z,1025.78
2022-11-26T12:26:55.021Z,1025.6100000000001
2022-11-26T12:41:55.070Z,1025.6
2022-11-26T12:56:55.127Z,1025.5900000000001
2022-11-26T13:11:55.112Z,1025.65
2022-11-26T13:26:55.121Z,1025.6
2022-11-26T13:41:55.120Z,1025.6599999999999
2022-11-26T13:56:55.193Z,1025.81
2022-11-26T14:12:55.242Z,1025.94
2022-11-26T14:27:55.350Z,1026.06
2022-11-26T14:42:55.373Z,1026.1100000000001
2022-11-26T14:57:55.487Z,1026.24
2022-11-26T15:12:55.456Z,1026.42
2022-11-26T15:27:55.534Z,1026.58
2022-11-26T15:42:55.563Z,1026.88
2022-11-26T15:58:55.584Z,1026.94
2022-11-26T16:13:55.617Z,1027.1
2022-11-26T16:27:55.652Z,1027.12
2022-11-26T16:41:55.637Z,1027.17
2022-11-26T16:55:55.634Z,1027.1599999999999
2022-11-26T17:09:55.647Z,1027.23
2022-11-26T17:23:55.703Z,1027.35
2022-11-26T17:38:55.717Z,1027.31
2022-11-26T17:53:55.752Z,1027.42
2022-11-26T18:07:55.892Z,1027.46
2022-11-26T18:21:55.780Z,1027.5900000000001
2022-11-26T18:35:55.791Z,1027.74
2022-11-26T18:49:55.781Z,1027.6100000000001
2022-11-26T19:03:55.772Z,1027.67
2022-11-26T19:17:55.919Z,1027.9099999999999
2022-11-26T19:31:55.914Z,1027.94
2022-11-26T19:45:55.973Z,1027.98
2022-11-26T19:59:55.966Z,1028.22
2022-11-26T20:13:55.982Z,1028.3400000000001
2022-11-26T20:27:56.069Z,1028.28
2022-11-26T20:41:56.103Z,1028.3
2022-11-26T20:55:56.339Z,1028.3200000000002
2022-11-26T21:09:56.384Z,1028.44
2022-11-26T21:23:56.390Z,1028.4299999999998
2022-11-26T21:37:56.549Z,1028.5
2022-11-26T21:51:56.515Z,1028.42
2022-11-26T22:05:56.683Z,1028.49
2022-11-26T22:19:56.859Z,1028.42
2022-11-26T22:33:56.949Z,1028.54
2022-11-26T22:47:57.105Z,1028.6
2022-11-26T23:01:57.177Z,1028.51
2022-11-26T23:15:57.270Z,1028.5900000000001
2022-11-26T23:29:57.295Z,1028.54
2022-11-26T23:43:57.314Z,1028.6100000000001
2022-11-26T23:57:57.321Z,1028.63
